Time;durP1;ratioP1;P1;durP2;ratioP2;P2;SDS_P1;SDS_P2;PMS_P1;PMS_P2;Temp;Humidity;BMP_temperature;BMP_pressure;BME280_temperature;BME280_humidity;BME280_pressure;Samples;Min_cycle;Max_cycle;Signal;HPM_P1;HPM_P2
2021/07/24 00:02:17;;;;;;;15.48;9.98;;;16.80;99.90;;;;;;5010960;28;20029;-85
2021/07/24 00:04:43;;;;;;;16.67;9.68;;;16.70;99.90;;;;;;5014098;28;20039;-87
2021/07/24 00:07:08;;;;;;;13.63;9.18;;;16.70;99.90;;;;;;5015859;28;20025;-85
2021/07/24 00:09:34;;;;;;;15.50;9.27;;;16.70;99.90;;;;;;5032231;28;20056;-86
2021/07/24 00:12:00;;;;;;;13.27;9.10;;;16.70;99.90;;;;;;5030224;28;20569;-85
2021/07/24 00:14:25;;;;;;;15.80;8.85;;;16.60;99.90;;;;;;5012743;28;20134;-86
2021/07/24 00:16:51;;;;;;;16.60;9.98;;;16.60;99.90;;;;;;5023070;28;20116;-86
2021/07/24 00:19:17;;;;;;;15.75;10.07;;;16.60;99.90;;;;;;5009257;28;20036;-86
2021/07/24 00:21:43;;;;;;;14.35;9.55;;;16.60;99.90;;;;;;5011739;28;20128;-86
2021/07/24 00:24:09;;;;;;;20.23;10.45;;;16.60;99.90;;;;;;5012616;28;20021;-86
2021/07/24 00:26:34;;;;;;;15.65;9.90;;;16.50;99.90;;;;;;5024085;28;20033;-85
2021/07/24 00:29:02;;;;;;;16.55;10.20;;;16.50;99.90;;;;;;5019889;28;20029;-85
2021/07/24 00:31:28;;;;;;;15.82;9.90;;;16.50;99.90;;;;;;5016287;28;20040;-84
2021/07/24 00:33:56;;;;;;;14.95;9.55;;;16.50;99.90;;;;;;5000977;28;20148;-84
2021/07/24 00:36:22;;;;;;;18.67;9.93;;;16.50;99.90;;;;;;5000382;28;20103;-84
2021/07/24 00:42:36;;;;;;;16.05;9.80;;;16.40;99.90;;;;;;5019828;28;20108;-87
2021/07/24 00:45:04;;;;;;;16.30;10.55;;;16.30;99.90;;;;;;5022002;28;20034;-85
2021/07/24 00:47:42;;;;;;;16.63;10.32;;;16.30;99.90;;;;;;5010665;28;20061;-86
2021/07/24 00:50:20;;;;;;;15.05;10.73;;;16.20;99.90;;;;;;5021303;28;20448;-86
2021/07/24 00:52:48;;;;;;;19.25;10.52;;;16.10;99.90;;;;;;5025711;28;20654;-86
2021/07/24 00:55:15;;;;;;;15.57;10.10;;;16.10;99.90;;;;;;5012030;28;20026;-88
2021/07/24 00:57:44;;;;;;;17.30;10.18;;;16.00;99.90;;;;;;5010033;28;20547;-88
2021/07/24 01:00:11;;;;;;;18.33;11.18;;;16.00;99.90;;;;;;5015825;28;20688;-88
2021/07/24 01:02:38;;;;;;;15.93;10.38;;;16.00;99.90;;;;;;4996154;28;20451;-87
2021/07/24 01:05:06;;;;;;;18.92;11.57;;;16.00;99.90;;;;;;4995749;28;20033;-87
2021/07/24 01:07:40;;;;;;;17.23;10.23;;;16.00;99.90;;;;;;4998800;28;20369;-87
2021/07/24 01:10:07;;;;;;;17.80;10.98;;;16.00;99.90;;;;;;4998003;28;20387;-87
2021/07/24 01:12:34;;;;;;;18.95;10.70;;;16.00;99.90;;;;;;5013268;28;20029;-86
2021/07/24 01:15:04;;;;;;;18.92;12.00;;;16.00;99.90;;;;;;5013909;28;20032;-88
2021/07/24 01:17:32;;;;;;;17.30;11.55;;;16.00;99.90;;;;;;5029885;28;20063;-88
2021/07/24 01:20:01;;;;;;;19.30;11.98;;;15.90;99.90;;;;;;5015502;28;20026;-87
2021/07/24 01:22:28;;;;;;;17.15;10.88;;;16.00;99.90;;;;;;5012730;28;20112;-88
2021/07/24 01:24:54;;;;;;;19.23;10.70;;;16.00;99.90;;;;;;5010774;28;20028;-89
2021/07/24 01:27:21;;;;;;;15.95;11.18;;;16.00;99.90;;;;;;5030600;28;20611;-89
2021/07/24 01:29:47;;;;;;;17.27;10.75;;;16.00;99.90;;;;;;5014041;28;20654;-87
2021/07/24 01:32:21;;;;;;;18.27;11.00;;;16.00;99.90;;;;;;5020088;28;20611;-89
2021/07/24 01:34:49;;;;;;;17.55;11.45;;;15.90;99.90;;;;;;5033606;28;20029;-89
2021/07/24 01:37:17;;;;;;;16.90;11.38;;;15.90;99.90;;;;;;5010985;28;20021;-88
2021/07/24 01:39:43;;;;;;;16.33;11.07;;;15.90;99.90;;;;;;5000668;28;20129;-87
2021/07/24 01:42:09;;;;;;;18.30;11.27;;;15.90;99.90;;;;;;5010536;28;20120;-87
2021/07/24 01:44:43;;;;;;;19.63;10.38;;;15.90;99.90;;;;;;4999441;28;20033;-88
2021/07/24 01:47:11;;;;;;;15.55;9.55;;;15.80;99.90;;;;;;5011250;28;20076;-88
2021/07/24 01:52:51;;;;;;;15.98;9.30;;;15.80;99.90;;;;;;5010919;28;20397;-87
2021/07/24 01:55:41;;;;;;;15.15;9.85;;;15.80;99.90;;;;;;5011103;28;20037;-88
2021/07/24 01:58:14;;;;;;;16.73;10.23;;;15.70;99.90;;;;;;5018249;28;20121;-88
2021/07/24 02:00:49;;;;;;;16.33;10.43;;;15.70;99.90;;;;;;4995660;28;20033;-88
2021/07/24 02:03:51;;;;;;;18.83;11.00;;;15.60;99.90;;;;;;4996512;28;20117;-87
2021/07/24 02:06:17;;;;;;;19.13;11.68;;;15.60;99.90;;;;;;5012843;28;20153;-87
2021/07/24 02:09:01;;;;;;;17.60;11.43;;;15.60;99.90;;;;;;4997524;28;20056;-87
2021/07/24 02:11:28;;;;;;;16.95;10.88;;;15.60;99.90;;;;;;4994480;28;20034;-87
2021/07/24 02:13:55;;;;;;;18.65;11.23;;;15.50;99.90;;;;;;5029194;28;20022;-91
2021/07/24 02:16:21;;;;;;;17.73;11.75;;;15.50;99.90;;;;;;5015543;28;20076;-87
2021/07/24 02:18:49;;;;;;;20.00;11.18;;;15.60;99.90;;;;;;4967193;28;20041;-87
2021/07/24 02:21:25;;;;;;;15.90;9.80;;;15.60;99.90;;;;;;5000703;28;20092;-87
2021/07/24 02:23:51;;;;;;;16.65;9.68;;;15.50;99.90;;;;;;4984119;28;20029;-86
2021/07/24 02:26:17;;;;;;;16.20;9.70;;;15.50;99.90;;;;;;4994644;28;20495;-87
2021/07/24 02:28:44;;;;;;;17.38;10.68;;;15.50;99.90;;;;;;5018660;28;20092;-88
2021/07/24 02:31:10;;;;;;;16.88;10.02;;;15.50;99.90;;;;;;5028084;28;20033;-87
2021/07/24 02:33:37;;;;;;;16.58;10.10;;;15.50;99.90;;;;;;5034362;28;20133;-86
2021/07/24 02:36:07;;;;;;;16.30;10.50;;;15.40;99.90;;;;;;5046376;28;20082;-88
2021/07/24 02:38:34;;;;;;;19.70;11.07;;;15.40;99.90;;;;;;5037750;28;20060;-87
2021/07/24 02:41:04;;;;;;;18.17;11.52;;;15.30;99.90;;;;;;5037320;28;20055;-88
2021/07/24 02:43:31;;;;;;;17.48;10.00;;;15.30;99.90;;;;;;5021462;28;20649;-86
2021/07/24 02:45:57;;;;;;;18.02;11.18;;;15.20;99.90;;;;;;5020903;28;20040;-87
2021/07/24 02:48:23;;;;;;;15.70;10.77;;;15.20;99.90;;;;;;5037413;28;20668;-87
2021/07/24 02:51:00;;;;;;;17.95;11.07;;;15.20;99.90;;;;;;5023512;28;20033;-87
2021/07/24 02:53:26;;;;;;;15.93;9.98;;;15.10;99.90;;;;;;5021120;28;20033;-86
2021/07/24 02:55:53;;;;;;;17.33;11.40;;;15.10;99.90;;;;;;5037677;28;20079;-87
2021/07/24 02:58:19;;;;;;;20.55;11.02;;;15.10;99.90;;;;;;5037284;28;20064;-87
2021/07/24 03:00:45;;;;;;;18.67;11.23;;;15.00;99.90;;;;;;5020982;28;20035;-86
2021/07/24 03:03:11;;;;;;;17.23;10.63;;;15.00;99.90;;;;;;5020786;28;20132;-87
2021/07/24 03:05:37;;;;;;;20.65;11.80;;;15.00;99.90;;;;;;5020776;28;20029;-86
2021/07/24 03:08:03;;;;;;;17.63;10.90;;;14.90;99.90;;;;;;5021024;28;20485;-87
2021/07/24 03:10:28;;;;;;;17.00;10.90;;;14.90;99.90;;;;;;5007652;28;20061;-87
2021/07/24 03:12:54;;;;;;;17.58;10.77;;;14.90;99.90;;;;;;5017168;28;20111;-88
2021/07/24 03:15:20;;;;;;;17.23;10.95;;;14.90;99.90;;;;;;5017319;28;20038;-87
2021/07/24 03:17:46;;;;;;;17.75;11.07;;;14.80;99.90;;;;;;5017181;28;20029;-88
2021/07/24 03:20:12;;;;;;;18.02;11.18;;;14.80;99.90;;;;;;5016792;28;20038;-87
2021/07/24 03:22:38;;;;;;;17.23;11.20;;;14.80;99.90;;;;;;5017181;28;20064;-86
2021/07/24 03:25:04;;;;;;;16.33;11.32;;;14.80;99.90;;;;;;5016602;28;20081;-86
2021/07/24 03:27:30;;;;;;;18.15;11.13;;;14.70;99.90;;;;;;5016960;28;20574;-86
2021/07/24 03:29:56;;;;;;;20.10;12.52;;;14.80;99.90;;;;;;5016754;28;20041;-86
2021/07/24 03:32:21;;;;;;;19.02;12.05;;;14.70;99.90;;;;;;5016784;28;20068;-86
2021/07/24 03:34:47;;;;;;;19.35;11.98;;;14.70;99.90;;;;;;5016633;28;20072;-87
2021/07/24 03:37:13;;;;;;;21.60;12.02;;;14.70;99.90;;;;;;5016375;28;20034;-85
2021/07/24 03:39:39;;;;;;;21.77;11.48;;;14.70;99.90;;;;;;5015147;28;20084;-87
2021/07/24 03:42:04;;;;;;;16.50;10.85;;;14.70;99.90;;;;;;5015177;28;20124;-87
2021/07/24 03:44:30;;;;;;;16.27;10.32;;;14.70;99.90;;;;;;4999758;28;20056;-86
2021/07/24 03:46:56;;;;;;;19.20;11.30;;;14.70;99.90;;;;;;5017101;28;20040;-86
2021/07/24 03:49:22;;;;;;;20.60;12.10;;;14.70;99.90;;;;;;5012533;28;20072;-86
2021/07/24 03:51:47;;;;;;;20.35;12.27;;;14.70;99.90;;;;;;5013520;28;20511;-86
2021/07/24 03:54:13;;;;;;;23.00;12.05;;;14.70;99.90;;;;;;5013760;28;20566;-86
2021/07/24 03:56:39;;;;;;;20.25;12.48;;;14.70;99.90;;;;;;5031110;28;20036;-86
2021/07/24 03:59:05;;;;;;;18.27;11.23;;;14.70;99.90;;;;;;5030796;28;20042;-86
2021/07/24 04:01:30;;;;;;;22.42;12.20;;;14.80;99.90;;;;;;5013569;28;20464;-86
2021/07/24 04:03:56;;;;;;;20.25;11.48;;;14.90;99.90;;;;;;5013040;28;20038;-86
2021/07/24 04:06:25;;;;;;;18.25;10.98;;;15.00;99.90;;;;;;5030245;28;20115;-87
2021/07/24 04:08:52;;;;;;;18.98;11.60;;;15.00;99.90;;;;;;5032662;28;20499;-86
2021/07/24 04:11:19;;;;;;;14.85;9.48;;;15.00;99.90;;;;;;5032370;28;20133;-86
2021/07/24 04:13:46;;;;;;;16.77;10.63;;;15.10;99.90;;;;;;5017430;28;20124;-87
2021/07/24 04:16:12;;;;;;;19.02;10.68;;;15.10;99.90;;;;;;5012651;28;20142;-90
2021/07/24 04:18:38;;;;;;;13.43;9.20;;;15.10;99.90;;;;;;5012503;28;20461;-86
2021/07/24 04:21:04;;;;;;;15.35;10.18;;;15.10;99.90;;;;;;5011547;28;20141;-86
2021/07/24 04:23:30;;;;;;;14.05;9.52;;;15.10;99.90;;;;;;5021688;28;20061;-86
2021/07/24 04:25:56;;;;;;;16.02;10.50;;;15.10;99.90;;;;;;5025158;28;20463;-86
2021/07/24 04:28:22;;;;;;;18.35;11.63;;;15.10;99.90;;;;;;5012347;28;20087;-86
2021/07/24 04:30:48;;;;;;;18.05;10.43;;;15.10;99.90;;;;;;5015266;28;20065;-86
2021/07/24 04:33:13;;;;;;;17.45;11.23;;;15.10;99.90;;;;;;5012326;28;20492;-86
2021/07/24 04:35:49;;;;;;;15.18;10.05;;;15.20;99.90;;;;;;5011558;28;20025;-86
2021/07/24 04:38:16;;;;;;;17.73;9.95;;;15.20;99.90;;;;;;5012636;28;20677;-86
2021/07/24 04:40:42;;;;;;;14.52;9.57;;;15.30;99.90;;;;;;5005689;28;20129;-86
2021/07/24 04:43:08;;;;;;;16.25;9.68;;;15.30;99.90;;;;;;5015062;28;20120;-86
2021/07/24 04:45:34;;;;;;;16.50;9.73;;;15.40;99.90;;;;;;4996837;28;20042;-86
2021/07/24 04:47:59;;;;;;;17.92;9.73;;;15.40;99.90;;;;;;5028842;28;20030;-87
2021/07/24 04:50:26;;;;;;;13.07;9.25;;;15.50;99.90;;;;;;5011503;28;20033;-86
2021/07/24 04:52:51;;;;;;;17.35;9.73;;;15.50;99.90;;;;;;5044927;28;20038;-87
2021/07/24 04:55:18;;;;;;;15.80;10.18;;;15.60;99.90;;;;;;5028543;28;20032;-87
2021/07/24 04:57:44;;;;;;;16.08;10.00;;;15.70;99.90;;;;;;5010730;28;20033;-86
2021/07/24 05:00:12;;;;;;;17.30;10.65;;;15.60;99.90;;;;;;5030851;28;20040;-86
2021/07/24 05:02:38;;;;;;;21.45;12.73;;;15.60;99.90;;;;;;5030981;28;20055;-88
2021/07/24 05:05:04;;;;;;;17.40;11.50;;;15.70;99.90;;;;;;5031361;28;20053;-87
2021/07/24 05:07:32;;;;;;;17.58;10.95;;;15.70;99.90;;;;;;5031124;28;20042;-87
2021/07/24 05:09:58;;;;;;;15.52;9.63;;;15.80;99.90;;;;;;5031223;28;20029;-89
2021/07/24 05:12:23;;;;;;;16.55;10.32;;;15.80;99.90;;;;;;5014605;28;20041;-87
2021/07/24 05:14:49;;;;;;;15.25;9.68;;;15.90;99.90;;;;;;5031843;28;20072;-87
2021/07/24 05:17:15;;;;;;;17.10;9.73;;;16.00;99.90;;;;;;5007972;28;20045;-86
2021/07/24 05:19:43;;;;;;;18.52;10.27;;;16.10;99.90;;;;;;5041057;28;20056;-85
2021/07/24 05:22:11;;;;;;;15.02;9.40;;;16.20;99.90;;;;;;5016050;28;20030;-85
2021/07/24 05:24:37;;;;;;;16.75;10.98;;;16.30;99.90;;;;;;5019265;28;20047;-86
2021/07/24 05:27:04;;;;;;;13.77;9.50;;;16.40;99.90;;;;;;5022820;28;20510;-85
2021/07/24 05:29:31;;;;;;;18.15;11.18;;;16.40;99.90;;;;;;5016544;28;20101;-84
2021/07/24 05:31:57;;;;;;;18.45;10.80;;;16.50;99.90;;;;;;5032749;28;20144;-88
2021/07/24 05:34:23;;;;;;;21.17;10.73;;;16.70;99.90;;;;;;5030864;28;20033;-88
2021/07/24 05:36:49;;;;;;;17.73;12.02;;;16.80;99.90;;;;;;5030854;28;20091;-87
2021/07/24 05:39:16;;;;;;;17.63;11.52;;;17.00;99.90;;;;;;5031292;28;20102;-87
2021/07/24 05:41:41;;;;;;;19.05;11.95;;;17.20;99.90;;;;;;5031090;28;20373;-86
2021/07/24 05:44:09;;;;;;;17.70;11.25;;;17.40;99.90;;;;;;5024541;28;20041;-87
2021/07/24 05:46:35;;;;;;;18.80;11.95;;;17.70;99.90;;;;;;5009746;28;20030;-87
2021/07/24 05:49:01;;;;;;;17.20;11.43;;;18.00;99.90;;;;;;5008457;28;20401;-87
2021/07/24 05:51:27;;;;;;;18.35;11.38;;;18.30;99.90;;;;;;5010924;28;20041;-87
2021/07/24 05:53:53;;;;;;;17.73;10.82;;;18.60;99.90;;;;;;4994978;28;20037;-86
2021/07/24 05:56:19;;;;;;;19.38;10.93;;;19.00;99.90;;;;;;4994562;28;20168;-88
2021/07/24 05:58:44;;;;;;;18.50;11.52;;;19.40;99.90;;;;;;5000407;28;20128;-87
2021/07/24 06:01:11;;;;;;;14.13;9.57;;;19.90;99.90;;;;;;5012390;28;20037;-87
2021/07/24 06:03:37;;;;;;;17.33;9.85;;;20.20;99.90;;;;;;5010160;28;20476;-87
2021/07/24 06:06:03;;;;;;;14.75;10.63;;;20.50;99.90;;;;;;5010809;28;20026;-88
2021/07/24 06:08:29;;;;;;;18.25;10.98;;;20.90;99.90;;;;;;5026611;28;20168;-88
2021/07/24 06:11:03;;;;;;;13.43;9.30;;;21.20;99.90;;;;;;5027344;28;20045;-88
2021/07/24 06:13:29;;;;;;;17.67;10.32;;;21.50;99.90;;;;;;5015738;28;20037;-88
2021/07/24 06:15:56;;;;;;;15.50;9.73;;;21.80;99.90;;;;;;5019875;28;20030;-88
2021/07/24 06:18:22;;;;;;;15.23;9.68;;;22.00;99.90;;;;;;4999497;28;20042;-89
2021/07/24 06:20:49;;;;;;;15.60;9.55;;;22.00;99.90;;;;;;5011286;28;20465;-87
2021/07/24 06:23:17;;;;;;;15.65;9.60;;;22.20;99.90;;;;;;5011549;28;20030;-88
2021/07/24 06:25:47;;;;;;;12.55;9.60;;;22.40;99.90;;;;;;5010972;28;20487;-87
2021/07/24 06:28:13;;;;;;;12.77;8.85;;;22.50;99.90;;;;;;5011421;28;20026;-87
2021/07/24 06:30:40;;;;;;;13.90;8.48;;;22.60;99.90;;;;;;5011619;28;20058;-86
2021/07/24 06:33:06;;;;;;;12.45;8.57;;;22.80;99.90;;;;;;5010389;28;20701;-88
2021/07/24 06:35:32;;;;;;;15.85;8.40;;;23.10;99.90;;;;;;5009473;28;20663;-87
2021/07/24 06:37:58;;;;;;;12.27;8.05;;;23.40;99.90;;;;;;5026518;28;20037;-85
2021/07/24 06:40:25;;;;;;;11.30;8.60;;;23.60;99.90;;;;;;5011585;28;20522;-87
2021/07/24 06:42:51;;;;;;;11.65;7.95;;;23.40;99.90;;;;;;5018162;28;20033;-87
2021/07/24 06:45:17;;;;;;;12.98;8.93;;;23.60;99.90;;;;;;5027452;28;20035;-88
2021/07/24 06:47:43;;;;;;;13.10;8.30;;;23.80;99.90;;;;;;5028070;28;20037;-88
2021/07/24 06:50:09;;;;;;;11.23;7.93;;;23.90;99.90;;;;;;5013326;28;20040;-88
2021/07/24 06:52:35;;;;;;;11.43;7.70;;;24.10;99.90;;;;;;5030527;28;20033;-89
2021/07/24 06:55:01;;;;;;;10.38;7.22;;;24.30;99.90;;;;;;5013907;28;20029;-87
2021/07/24 06:57:27;;;;;;;11.07;8.05;;;24.40;99.90;;;;;;5013745;28;20048;-87
2021/07/24 06:59:56;;;;;;;9.45;7.32;;;24.40;99.40;;;;;;5033115;28;20116;-87
2021/07/24 07:02:21;;;;;;;11.38;8.32;;;24.00;99.20;;;;;;5033058;28;20150;-86
2021/07/24 07:04:47;;;;;;;10.70;7.88;;;23.70;96.80;;;;;;5038051;28;20400;-87
2021/07/24 07:07:13;;;;;;;11.43;7.82;;;23.40;98.50;;;;;;4984860;28;20037;-88
2021/07/24 07:09:39;;;;;;;9.85;7.55;;;23.70;98.30;;;;;;5013709;28;20034;-89
2021/07/24 07:12:05;;;;;;;10.27;7.75;;;23.70;97.00;;;;;;5022200;28;20036;-88
2021/07/24 07:14:31;;;;;;;12.27;8.02;;;23.80;97.50;;;;;;5017496;28;20042;-88
2021/07/24 07:16:57;;;;;;;13.23;7.75;;;24.00;98.80;;;;;;5017308;28;20037;-88
2021/07/24 07:19:23;;;;;;;13.52;8.57;;;24.40;96.10;;;;;;5013620;28;20048;-88
2021/07/24 07:21:49;;;;;;;10.40;7.68;;;24.50;95.80;;;;;;5033177;28;20480;-87
2021/07/24 07:24:15;;;;;;;10.48;7.72;;;24.60;94.30;;;;;;5014861;28;20037;-87
2021/07/24 07:26:42;;;;;;;10.40;7.57;;;24.80;95.50;;;;;;5028110;28;20079;-87
2021/07/24 07:29:08;;;;;;;11.55;7.28;;;25.40;94.60;;;;;;5001092;28;20109;-88
2021/07/24 07:31:36;;;;;;;10.30;7.15;;;25.70;90.80;;;;;;5015509;28;20041;-87
2021/07/24 07:34:03;;;;;;;12.07;7.60;;;25.70;90.50;;;;;;5018620;28;20037;-89
2021/07/24 07:36:29;;;;;;;9.27;6.57;;;25.60;89.70;;;;;;5015548;28;20032;-88
2021/07/24 07:38:55;;;;;;;9.68;6.68;;;25.70;90.90;;;;;;5014844;28;20384;-87
2021/07/24 07:41:21;;;;;;;10.82;7.53;;;25.30;87.10;;;;;;5015321;28;20033;-88
2021/07/24 07:43:48;;;;;;;10.45;7.15;;;25.00;90.60;;;;;;4999645;28;20033;-88
2021/07/24 07:46:15;;;;;;;10.68;7.47;;;24.60;90.20;;;;;;4996939;28;20512;-90
2021/07/24 07:48:41;;;;;;;10.95;7.22;;;24.60;91.20;;;;;;5027080;28;20030;-87
2021/07/24 07:51:07;;;;;;;8.02;6.60;;;24.40;91.60;;;;;;5022031;28;20041;-89
2021/07/24 07:53:33;;;;;;;11.57;7.53;;;24.20;91.10;;;;;;5030502;28;20029;-89
2021/07/24 07:56:00;;;;;;;12.18;7.07;;;24.10;92.30;;;;;;5032593;28;20038;-87
2021/07/24 07:58:27;;;;;;;11.68;7.38;;;24.00;92.50;;;;;;5015997;28;20037;-88
2021/07/24 08:00:54;;;;;;;10.18;7.90;;;23.70;91.60;;;;;;5015266;28;20616;-88
2021/07/24 08:03:24;;;;;;;8.52;7.00;;;23.40;92.20;;;;;;5012638;28;20496;-88
2021/07/24 08:05:53;;;;;;;10.48;7.43;;;23.30;93.00;;;;;;5003648;28;20029;-87
2021/07/24 08:08:19;;;;;;;10.57;6.95;;;23.40;93.80;;;;;;5015793;28;20029;-88
2021/07/24 08:10:49;;;;;;;10.07;7.07;;;23.50;94.00;;;;;;5025780;28;20479;-89
2021/07/24 08:13:16;;;;;;;13.90;8.02;;;23.80;98.40;;;;;;4988033;28;20063;-86
2021/07/24 08:15:43;;;;;;;9.80;6.85;;;24.00;94.60;;;;;;5020116;28;20037;-87
2021/07/24 08:18:09;;;;;;;9.88;7.15;;;24.30;94.00;;;;;;5005041;28;20036;-87
2021/07/24 08:20:39;;;;;;;9.38;6.85;;;24.50;91.90;;;;;;5014568;28;20079;-86
2021/07/24 08:23:05;;;;;;;11.95;7.38;;;24.40;93.10;;;;;;5013583;28;20052;-86
2021/07/24 08:25:34;;;;;;;8.25;6.63;;;24.30;93.30;;;;;;5019287;28;20162;-86
2021/07/24 08:28:04;;;;;;;10.27;6.90;;;24.30;92.30;;;;;;4999977;28;20034;-86
2021/07/24 08:30:30;;;;;;;10.20;6.53;;;24.30;89.50;;;;;;5018696;28;20044;-89
2021/07/24 08:32:56;;;;;;;9.63;6.82;;;24.60;93.30;;;;;;5034290;28;20036;-87
2021/07/24 08:35:22;;;;;;;11.77;7.45;;;24.90;88.70;;;;;;5011982;28;20025;-85
2021/07/24 08:37:47;;;;;;;13.60;6.80;;;25.10;88.50;;;;;;5018324;28;20121;-86
2021/07/24 08:40:14;;;;;;;13.45;7.25;;;25.30;86.30;;;;;;5000972;28;20041;-86
2021/07/24 08:42:41;;;;;;;10.95;6.45;;;25.50;82.70;;;;;;5024834;28;20243;-87
2021/07/24 08:45:08;;;;;;;9.50;6.45;;;25.80;83.30;;;;;;5012275;28;20021;-86
2021/07/24 08:47:35;;;;;;;10.50;6.50;;;26.10;85.20;;;;;;5016653;28;20040;-87
2021/07/24 08:50:05;;;;;;;9.93;6.93;;;26.30;83.20;;;;;;5014675;28;20033;-86
2021/07/24 08:52:33;;;;;;;9.43;6.40;;;26.20;80.80;;;;;;5017455;28;20029;-87
2021/07/24 08:55:00;;;;;;;8.95;5.93;;;26.20;82.20;;;;;;5015971;28;20567;-86
2021/07/24 08:57:35;;;;;;;9.85;6.43;;;26.30;82.30;;;;;;5015754;28;20036;-87
2021/07/24 09:00:15;;;;;;;8.27;6.13;;;26.60;80.30;;;;;;5010446;28;20056;-87
2021/07/24 09:02:43;;;;;;;9.85;6.70;;;26.90;83.70;;;;;;5017387;28;20161;-87
2021/07/24 09:05:14;;;;;;;10.15;6.18;;;27.00;78.50;;;;;;5021382;28;20018;-86
2021/07/24 09:07:41;;;;;;;9.57;7.20;;;26.90;77.30;;;;;;5032973;28;20034;-87
2021/07/24 09:10:11;;;;;;;9.95;6.55;;;27.10;74.60;;;;;;5030650;28;20030;-89
2021/07/24 09:12:39;;;;;;;9.65;6.95;;;27.30;79.00;;;;;;5019444;28;20040;-87
2021/07/24 09:15:10;;;;;;;9.73;6.90;;;27.40;78.90;;;;;;5032284;28;20037;-88
2021/07/24 09:17:36;;;;;;;8.23;6.35;;;27.40;77.80;;;;;;5031081;28;20033;-87
2021/07/24 09:20:02;;;;;;;9.05;6.57;;;27.30;81.60;;;;;;5014964;28;20395;-88
2021/07/24 09:22:33;;;;;;;8.48;5.78;;;27.30;78.10;;;;;;5013545;28;20044;-87
2021/07/24 09:25:15;;;;;;;8.77;6.05;;;27.30;76.50;;;;;;5036051;28;20063;-87
2021/07/24 09:27:52;;;;;;;7.97;6.03;;;27.10;76.40;;;;;;5032435;28;20064;-85
2021/07/24 09:30:24;;;;;;;9.82;7.10;;;27.00;69.20;;;;;;5047013;28;20037;-86
2021/07/24 09:33:11;;;;;;;8.48;6.70;;;26.90;70.50;;;;;;5017012;28;20032;-87
2021/07/24 09:35:42;;;;;;;8.85;6.20;;;26.90;73.70;;;;;;5015753;28;20476;-87
2021/07/24 09:38:15;;;;;;;8.00;5.88;;;26.80;72.50;;;;;;5011791;28;20022;-88
2021/07/24 09:40:44;;;;;;;8.43;6.03;;;26.80;70.80;;;;;;5022767;28;20036;-89
2021/07/24 09:43:31;;;;;;;9.85;6.25;;;26.50;69.40;;;;;;5014291;28;20029;-88
2021/07/24 09:46:12;;;;;;;9.38;6.68;;;26.30;70.90;;;;;;5013557;28;20040;-89
2021/07/24 09:48:46;;;;;;;7.47;6.25;;;26.20;71.60;;;;;;5012310;28;20030;-88
2021/07/24 09:51:13;;;;;;;7.70;6.03;;;26.20;73.30;;;;;;5026827;28;20037;-88
2021/07/24 09:53:44;;;;;;;9.30;6.60;;;26.30;71.80;;;;;;5008725;28;20038;-90
2021/07/24 09:56:15;;;;;;;8.25;5.72;;;26.30;71.80;;;;;;5027410;28;20102;-90
2021/07/24 09:58:45;;;;;;;7.30;5.30;;;26.40;73.20;;;;;;5012699;28;20033;-89
2021/07/24 10:01:15;;;;;;;7.82;5.78;;;26.40;69.30;;;;;;5007995;28;20034;-87
2021/07/24 10:03:41;;;;;;;8.13;6.20;;;26.30;73.10;;;;;;5013078;28;20030;-87
2021/07/24 10:06:16;;;;;;;6.93;5.40;;;26.40;72.20;;;;;;5013634;28;20021;-88
2021/07/24 10:08:46;;;;;;;7.70;5.45;;;26.40;75.20;;;;;;5013276;28;20025;-88
2021/07/24 10:11:12;;;;;;;8.60;5.93;;;26.30;73.10;;;;;;5031712;28;20057;-87
2021/07/24 10:13:39;;;;;;;9.85;6.15;;;26.30;74.30;;;;;;5013129;28;20021;-88
2021/07/24 10:16:05;;;;;;;6.55;5.15;;;26.30;69.70;;;;;;5012888;28;20034;-89
2021/07/24 10:18:32;;;;;;;8.15;5.60;;;26.30;68.70;;;;;;5013025;28;20446;-88
2021/07/24 10:20:58;;;;;;;9.25;5.50;;;26.30;69.80;;;;;;5012616;28;20130;-88
2021/07/24 10:23:24;;;;;;;8.23;5.50;;;26.40;69.70;;;;;;5032097;28;20061;-86
2021/07/24 10:26:00;;;;;;;7.40;5.78;;;26.40;67.40;;;;;;5031412;28;20065;-88
2021/07/24 10:28:54;;;;;;;7.95;6.05;;;26.30;65.20;;;;;;5011622;28;20056;-88
2021/07/24 10:31:26;;;;;;;7.63;5.43;;;26.20;65.30;;;;;;5013087;28;20032;-88
2021/07/24 10:34:02;;;;;;;11.20;5.55;;;26.20;66.80;;;;;;5009860;28;20091;-88
2021/07/24 10:36:38;;;;;;;8.48;5.43;;;26.30;67.90;;;;;;5013826;28;20057;-88
2021/07/24 10:39:17;;;;;;;9.57;6.25;;;26.30;70.00;;;;;;5011007;28;20030;-89
2021/07/24 10:41:48;;;;;;;7.60;5.53;;;26.50;66.40;;;;;;5032727;28;20030;-90
2021/07/24 10:44:24;;;;;;;8.23;5.15;;;26.50;69.40;;;;;;5018102;28;20272;-90
2021/07/24 10:46:49;;;;;;;11.00;6.30;;;26.50;65.10;;;;;;5016293;28;20471;-89
2021/07/24 10:49:33;;;;;;;7.97;5.35;;;26.50;68.50;;;;;;5035028;28;20021;-89
2021/07/24 10:52:09;;;;;;;8.57;5.88;;;26.60;65.10;;;;;;5017226;28;20034;-88
2021/07/24 10:55:00;;;;;;;9.20;5.40;;;26.60;65.50;;;;;;5017713;28;20637;-89
2021/07/24 10:57:45;;;;;;;9.23;6.47;;;26.70;64.30;;;;;;5018200;28;20029;-87
2021/07/24 11:00:17;;;;;;;10.25;5.63;;;26.80;65.20;;;;;;5015087;28;20030;-88
2021/07/24 11:02:48;;;;;;;7.90;5.68;;;27.00;64.70;;;;;;5012282;28;20087;-87
2021/07/24 11:05:29;;;;;;;7.40;5.75;;;27.00;64.10;;;;;;5016419;28;20025;-89
2021/07/24 11:07:58;;;;;;;6.63;4.68;;;27.20;67.60;;;;;;5016379;28;20108;-89
2021/07/24 11:10:25;;;;;;;8.38;5.18;;;27.40;58.10;;;;;;5015874;28;20041;-90
2021/07/24 11:12:51;;;;;;;6.97;5.60;;;27.40;58.40;;;;;;5014074;28;20061;-89
2021/07/24 11:15:21;;;;;;;9.43;5.72;;;27.40;59.50;;;;;;5016557;28;20026;-87
2021/07/24 11:18:23;;;;;;;6.18;4.63;;;27.40;58.80;;;;;;5015289;28;20468;-88
2021/07/24 11:20:50;;;;;;;6.47;5.45;;;27.40;61.60;;;;;;5013240;28;20033;-88
2021/07/24 11:23:17;;;;;;;8.80;6.03;;;27.30;57.70;;;;;;5025632;28;20030;-88
2021/07/24 11:25:44;;;;;;;6.50;5.45;;;27.30;58.70;;;;;;5016343;28;20044;-89
2021/07/24 11:28:21;;;;;;;6.78;5.10;;;27.30;59.20;;;;;;5014358;28;20022;-89
2021/07/24 11:30:59;;;;;;;6.80;4.97;;;27.30;57.40;;;;;;5016936;28;20048;-89
2021/07/24 11:33:31;;;;;;;9.20;6.05;;;27.30;57.10;;;;;;5016847;28;20331;-88
2021/07/24 11:36:08;;;;;;;7.47;4.93;;;27.20;56.70;;;;;;5017694;28;20029;-90
2021/07/24 11:38:36;;;;;;;9.85;5.57;;;27.20;58.00;;;;;;5014714;28;20042;-88
2021/07/24 11:41:11;;;;;;;10.68;6.10;;;27.20;56.00;;;;;;5034887;28;20148;-88
2021/07/24 11:43:37;;;;;;;;;;;26.90;55.30;;;;;;5007279;28;20390;-88
2021/07/24 11:46:07;;;;;;;7.72;5.35;;;26.80;55.50;;;;;;5031355;28;19913;-89
2021/07/24 11:48:35;;;;;;;7.63;5.20;;;26.60;57.30;;;;;;4998834;28;20060;-88
2021/07/24 11:51:05;;;;;;;7.63;5.60;;;26.30;58.10;;;;;;5032780;28;20033;-88
2021/07/24 11:53:32;;;;;;;6.93;5.15;;;26.30;59.00;;;;;;5017073;28;20116;-88
2021/07/24 11:55:59;;;;;;;8.80;5.45;;;26.20;59.80;;;;;;5016815;28;20041;-88
2021/07/24 11:58:25;;;;;;;7.35;5.35;;;26.10;58.30;;;;;;5015267;28;20037;-89
2021/07/24 12:00:53;;;;;;;8.07;5.80;;;26.10;60.30;;;;;;5012458;28;20512;-89
2021/07/24 12:03:23;;;;;;;7.53;6.00;;;26.10;60.80;;;;;;5016012;28;20033;-89
2021/07/24 12:06:15;;;;;;;7.65;5.20;;;26.00;59.70;;;;;;5015580;28;20036;-88
2021/07/24 12:08:44;;;;;;;8.05;5.25;;;26.00;61.80;;;;;;4998280;28;20072;-89
2021/07/24 12:11:38;;;;;;;7.55;6.00;;;26.00;63.70;;;;;;5012096;28;20105;-87
2021/07/24 12:14:29;;;;;;;11.68;6.00;;;25.90;62.10;;;;;;5028893;28;20068;-90
2021/07/24 12:17:09;;;;;;;8.07;5.47;;;26.00;64.80;;;;;;5029251;28;20109;-86
2021/07/24 12:19:36;;;;;;;9.10;6.07;;;26.00;63.10;;;;;;5013115;28;20037;-87
2021/07/24 12:22:17;;;;;;;7.47;5.63;;;26.00;62.90;;;;;;5013896;28;20029;-89
2021/07/24 12:24:43;;;;;;;7.70;5.82;;;25.90;62.80;;;;;;5026416;28;20025;-89
2021/07/24 12:27:21;;;;;;;10.45;6.07;;;25.90;64.10;;;;;;5006709;28;20026;-90
2021/07/24 12:30:00;;;;;;;8.35;6.13;;;25.80;63.30;;;;;;5026451;28;20060;-91
2021/07/24 12:32:40;;;;;;;9.20;6.25;;;25.80;63.30;;;;;;5008537;28;20025;-91
2021/07/24 12:35:16;;;;;;;9.70;6.70;;;25.90;64.70;;;;;;5023975;28;20036;-87
2021/07/24 12:37:42;;;;;;;8.23;6.07;;;26.00;64.40;;;;;;5011863;28;20033;-87
2021/07/24 12:40:28;;;;;;;8.75;6.20;;;26.10;63.00;;;;;;5006665;28;20029;-88
2021/07/24 12:42:54;;;;;;;7.45;5.28;;;26.10;65.00;;;;;;5021626;28;20031;-86
2021/07/24 12:45:33;;;;;;;8.68;6.00;;;26.30;66.80;;;;;;5010511;28;20440;-87
2021/07/24 12:48:18;;;;;;;7.85;6.15;;;26.40;62.00;;;;;;5008012;28;20496;-87
2021/07/24 12:51:04;;;;;;;9.50;6.35;;;26.80;65.00;;;;;;5006190;28;20034;-85
2021/07/24 12:53:56;;;;;;;8.55;5.80;;;27.10;61.50;;;;;;5021429;28;20097;-86